createdAt,value
2023-12-13T00:00:59.724Z,80.83
2023-12-13T00:02:02.390Z,81.00
2023-12-13T00:03:05.596Z,81.00
2023-12-13T00:04:08.603Z,81.83
2023-12-13T00:05:11.293Z,81.83
2023-12-13T00:06:13.902Z,81.67
2023-12-13T00:07:16.553Z,82.00
2023-12-13T00:08:21.762Z,81.83
2023-12-13T00:09:24.453Z,81.00
2023-12-13T00:10:27.205Z,81.67
2023-12-13T00:11:29.887Z,82.00
2023-12-13T00:12:32.500Z,82.00
2023-12-13T00:13:35.803Z,82.33
2023-12-13T00:14:38.432Z,83.00
2023-12-13T00:15:41.068Z,83.00
2023-12-13T00:16:43.755Z,83.00
2023-12-13T00:17:46.470Z,83.00
2023-12-13T00:18:49.382Z,82.33
2023-12-13T00:19:52.246Z,82.00
2023-12-13T00:20:54.871Z,82.00
2023-12-13T00:21:57.574Z,82.33
2023-12-13T00:23:00.224Z,83.00
2023-12-13T00:24:03.094Z,83.00
2023-12-13T00:25:06.143Z,82.33
2023-12-13T00:26:16.540Z,82.00
2023-12-13T00:27:19.170Z,81.33
2023-12-13T00:28:22.306Z,81.00
2023-12-13T00:29:25.517Z,79.83
2023-12-13T00:30:28.207Z,78.50
2023-12-13T00:31:31.305Z,78.00
2023-12-13T00:32:33.990Z,78.17
2023-12-13T00:33:36.707Z,79.17
2023-12-13T00:34:39.408Z,80.00
2023-12-13T00:35:42.037Z,80.00
2023-12-13T00:36:44.667Z,80.00
2023-12-13T00:37:47.421Z,80.00
2023-12-13T00:38:50.059Z,80.00
2023-12-13T00:39:53.666Z,80.00
2023-12-13T00:40:57.005Z,80.17
2023-12-13T00:41:59.657Z,80.00
2023-12-13T00:43:02.774Z,80.50
2023-12-13T00:44:05.570Z,81.00
2023-12-13T00:45:09.510Z,81.00
2023-12-13T00:46:21.003Z,81.00
2023-12-13T00:47:23.923Z,81.00
2023-12-13T00:48:26.704Z,81.00
2023-12-13T00:49:29.404Z,81.67
2023-12-13T00:50:32.058Z,82.00
2023-12-13T00:51:34.638Z,82.00
2023-12-13T00:52:37.274Z,82.67
2023-12-13T00:53:40.202Z,82.00
2023-12-13T00:54:42.839Z,82.50
2023-12-13T00:55:45.515Z,83.00
2023-12-13T00:56:48.135Z,83.00
2023-12-13T00:57:50.765Z,83.17
2023-12-13T00:58:53.379Z,84.00
2023-12-13T00:59:56.053Z,84.00
2023-12-13T01:00:58.713Z,84.00
2023-12-13T01:02:01.792Z,84.67
2023-12-13T01:03:04.550Z,85.00
2023-12-13T01:04:07.203Z,85.17
2023-12-13T01:05:10.409Z,86.00
2023-12-13T01:06:13.074Z,85.00
2023-12-13T01:07:15.685Z,85.00
2023-12-13T01:08:18.594Z,85.00
2023-12-13T01:09:21.194Z,85.00
2023-12-13T01:10:23.861Z,85.00
2023-12-13T01:11:26.582Z,84.33
2023-12-13T01:12:29.251Z,82.83
2023-12-13T01:13:31.894Z,82.00
2023-12-13T01:14:35.005Z,82.00
2023-12-13T01:15:38.297Z,82.00
2023-12-13T01:16:40.955Z,82.00
2023-12-13T01:17:43.601Z,81.50
2023-12-13T01:18:46.275Z,82.00
2023-12-13T01:19:48.937Z,82.50
2023-12-13T01:20:51.575Z,82.67
2023-12-13T01:21:54.165Z,81.33
2023-12-13T01:22:57.313Z,81.00
2023-12-13T01:24:01.659Z,80.50
2023-12-13T01:25:04.611Z,80.00
2023-12-13T01:26:07.363Z,78.67
2023-12-13T01:27:10.001Z,78.00
2023-12-13T01:28:12.661Z,79.00
2023-12-13T01:29:15.406Z,79.00
2023-12-13T01:30:18.125Z,79.50
2023-12-13T01:31:20.758Z,80.33
2023-12-13T01:32:23.479Z,82.00
2023-12-13T01:33:26.178Z,82.00
2023-12-13T01:34:28.943Z,82.00
2023-12-13T01:35:31.554Z,83.00
2023-12-13T01:36:35.081Z,83.00
2023-12-13T01:37:37.911Z,83.00
2023-12-13T01:38:40.689Z,82.00
2023-12-13T01:39:43.262Z,82.00
2023-12-13T01:41:10.796Z,81.33
2023-12-13T01:42:15.017Z,81.00
2023-12-13T01:43:24.681Z,80.33
2023-12-13T01:44:27.317Z,78.67
2023-12-13T01:45:30.047Z,78.00
2023-12-13T01:46:32.895Z,77.50
2023-12-13T01:47:36.134Z,77.00
2023-12-13T01:48:39.926Z,76.33
2023-12-13T01:49:42.584Z,75.00
2023-12-13T01:50:45.337Z,75.00
2023-12-13T01:51:48.136Z,74.00
2023-12-13T01:53:11.234Z,73.33
2023-12-13T01:54:34.362Z,72.17
2023-12-13T01:55:37.110Z,72.17
2023-12-13T01:56:42.306Z,72.00
2023-12-13T01:57:44.954Z,72.00
2023-12-13T01:58:48.109Z,71.17
2023-12-13T01:59:51.287Z,71.00
2023-12-13T02:00:54.071Z,71.00
2023-12-13T02:01:57.801Z,71.00
2023-12-13T02:03:01.168Z,71.00
2023-12-13T02:04:07.007Z,71.00
2023-12-13T02:05:10.335Z,71.00
2023-12-13T02:06:12.960Z,70.67
2023-12-13T02:07:16.503Z,71.00
2023-12-13T02:08:19.244Z,71.00
2023-12-13T02:09:21.938Z,72.33
2023-12-13T02:10:24.602Z,73.83
2023-12-13T02:11:28.415Z,75.50
2023-12-13T02:12:31.278Z,77.50
2023-12-13T02:13:34.287Z,78.83
2023-12-13T02:14:36.950Z,78.83
2023-12-13T02:15:39.579Z,79.00
2023-12-13T02:16:42.284Z,79.00
2023-12-13T02:17:54.282Z,78.33
2023-12-13T02:18:56.935Z,78.00
2023-12-13T02:19:59.628Z,77.17
2023-12-13T02:21:02.314Z,76.50
2023-12-13T02:22:09.152Z,76.00
2023-12-13T02:23:11.862Z,76.00
2023-12-13T02:24:14.521Z,76.00
2023-12-13T02:25:22.955Z,77.50
2023-12-13T02:26:26.037Z,79.67
2023-12-13T02:27:31.209Z,81.17
2023-12-13T02:28:34.328Z,81.83
2023-12-13T02:29:37.490Z,83.33
2023-12-13T02:30:42.453Z,84.83
2023-12-13T02:31:45.585Z,86.67
2023-12-13T02:32:48.276Z,91.17
2023-12-13T02:33:51.009Z,93.00
2023-12-13T02:34:53.684Z,93.67
2023-12-13T02:35:59.212Z,94.83
2023-12-13T02:37:03.692Z,95.17
2023-12-13T02:38:06.301Z,96.00
2023-12-13T02:39:09.872Z,96.00
2023-12-13T02:40:14.686Z,95.50
2023-12-13T02:41:17.310Z,96.00
2023-12-13T02:42:20.425Z,96.00
2023-12-13T02:43:23.193Z,96.67
2023-12-13T02:44:25.814Z,98.00
2023-12-13T02:45:28.394Z,98.17
2023-12-13T02:46:31.010Z,97.33
2023-12-13T02:47:34.228Z,97.00
2023-12-13T02:48:37.098Z,97.00
2023-12-13T02:49:39.786Z,96.00
2023-12-13T02:50:42.436Z,95.83
2023-12-13T02:51:45.051Z,95.00
2023-12-13T02:52:47.832Z,95.00
2023-12-13T02:53:50.519Z,95.00
2023-12-13T02:54:53.131Z,94.50
2023-12-13T02:55:55.868Z,94.00
2023-12-13T02:56:58.538Z,93.33
2023-12-13T02:58:01.850Z,93.83
2023-12-13T02:59:04.450Z,93.00
2023-12-13T03:00:08.113Z,93.67
2023-12-13T03:01:10.802Z,94.00
2023-12-13T03:02:13.499Z,93.33
2023-12-13T03:03:16.202Z,92.67
2023-12-13T03:04:18.873Z,91.17
2023-12-13T03:05:21.592Z,89.50
2023-12-13T03:06:24.265Z,89.00
2023-12-13T03:07:26.910Z,89.50
2023-12-13T03:08:30.074Z,90.00
2023-12-13T03:09:32.687Z,90.00
2023-12-13T03:10:35.312Z,90.50
2023-12-13T03:11:37.911Z,91.50
2023-12-13T03:12:40.856Z,93.67
2023-12-13T03:13:43.559Z,95.33
2023-12-13T03:14:46.183Z,96.00
2023-12-13T03:15:48.755Z,97.17
2023-12-13T03:16:51.353Z,99.50
2023-12-13T03:17:54.029Z,101.00
2023-12-13T03:18:56.855Z,101.00
2023-12-13T03:19:59.562Z,100.00
2023-12-13T03:21:02.145Z,100.83
2023-12-13T03:22:04.764Z,101.00
2023-12-13T03:23:09.503Z,101.00
2023-12-13T03:24:12.185Z,100.00
2023-12-13T03:25:15.251Z,98.50
2023-12-13T03:26:19.484Z,96.67
2023-12-13T03:27:22.084Z,94.00
2023-12-13T03:28:24.714Z,93.00
2023-12-13T03:29:27.388Z,94.00
2023-12-13T03:30:30.013Z,93.83
2023-12-13T03:31:32.663Z,93.17
2023-12-13T03:32:35.351Z,93.00
2023-12-13T03:33:38.213Z,92.83
2023-12-13T03:34:41.059Z,92.50
2023-12-13T03:35:43.679Z,96.83
2023-12-13T03:36:46.267Z,104.17
2023-12-13T03:37:49.211Z,105.33
2023-12-13T03:38:51.900Z,104.33
2023-12-13T03:39:54.529Z,103.50
2023-12-13T03:40:57.124Z,102.00
2023-12-13T03:41:59.738Z,95.33
2023-12-13T03:43:03.117Z,91.83
2023-12-13T03:44:05.744Z,90.33
2023-12-13T03:45:08.600Z,89.33
2023-12-13T03:46:11.303Z,89.00
2023-12-13T03:47:14.081Z,89.67
2023-12-13T03:48:16.801Z,89.00
2023-12-13T03:49:19.591Z,87.50
2023-12-13T03:50:22.514Z,85.33
2023-12-13T03:51:25.120Z,82.50
2023-12-13T03:52:27.697Z,81.00
2023-12-13T03:53:30.697Z,80.67
2023-12-13T03:54:33.252Z,81.00
2023-12-13T03:55:35.928Z,81.50
2023-12-13T03:56:38.578Z,80.33
2023-12-13T03:57:41.187Z,79.83
2023-12-13T03:58:43.911Z,78.50
2023-12-13T03:59:46.523Z,77.83
2023-12-13T04:00:49.201Z,77.17
2023-12-13T04:01:51.888Z,76.83
2023-12-13T04:02:54.497Z,75.33
2023-12-13T04:03:57.167Z,73.83
2023-12-13T04:04:59.885Z,73.17
2023-12-13T04:06:03.430Z,72.17
2023-12-13T04:07:07.332Z,71.17
2023-12-13T04:08:10.160Z,70.83
2023-12-13T04:09:13.099Z,68.83
2023-12-13T04:10:18.322Z,66.00
2023-12-13T04:11:20.974Z,66.00
2023-12-13T04:12:23.670Z,66.00
2023-12-13T04:13:26.284Z,67.00
2023-12-13T04:14:28.908Z,67.33
2023-12-13T04:15:32.107Z,68.67
2023-12-13T04:16:34.824Z,69.00
2023-12-13T04:17:38.126Z,69.00
2023-12-13T04:18:40.955Z,69.00
2023-12-13T04:19:43.695Z,70.00
2023-12-13T04:20:46.286Z,70.00
2023-12-13T04:21:48.926Z,70.00
2023-12-13T04:22:51.592Z,71.00
2023-12-13T04:23:54.290Z,70.33
2023-12-13T04:24:56.873Z,70.33
2023-12-13T04:25:59.479Z,70.67
2023-12-13T04:27:02.133Z,71.00
2023-12-13T04:28:05.083Z,71.33
2023-12-13T04:29:07.708Z,72.33
2023-12-13T04:30:12.651Z,74.00
2023-12-13T04:31:15.348Z,73.67
2023-12-13T04:32:18.224Z,73.00
2023-12-13T04:33:20.868Z,72.33
2023-12-13T04:34:23.556Z,72.50
2023-12-13T04:35:26.336Z,73.00
2023-12-13T04:36:29.210Z,73.00
2023-12-13T04:37:32.059Z,72.33
2023-12-13T04:38:35.319Z,72.00
2023-12-13T04:39:39.319Z,72.00
2023-12-13T04:40:42.622Z,72.33
2023-12-13T04:41:45.260Z,73.00
2023-12-13T04:42:47.992Z,73.00
2023-12-13T04:43:50.638Z,73.00
2023-12-13T04:44:54.469Z,73.00
2023-12-13T04:45:57.079Z,73.00
2023-12-13T04:47:03.063Z,73.83
2023-12-13T04:48:06.475Z,75.67
2023-12-13T04:49:09.267Z,77.00
2023-12-13T04:50:12.044Z,77.17
2023-12-13T04:51:14.695Z,78.83
2023-12-13T04:52:17.389Z,81.00
2023-12-13T04:53:20.043Z,81.83
2023-12-13T04:54:23.537Z,81.00
2023-12-13T04:55:26.308Z,81.00
2023-12-13T04:56:28.899Z,81.00
2023-12-13T04:57:31.680Z,81.83
2023-12-13T04:58:34.846Z,83.00
2023-12-13T04:59:37.835Z,83.00
2023-12-13T05:00:40.455Z,83.67
2023-12-13T05:01:43.393Z,84.00
2023-12-13T05:02:46.403Z,84.00
2023-12-13T05:03:49.096Z,83.67
2023-12-13T05:04:51.785Z,82.83
2023-12-13T05:05:54.561Z,82.00
2023-12-13T05:06:57.206Z,80.83
2023-12-13T05:07:59.960Z,80.00
2023-12-13T05:09:02.646Z,80.83
2023-12-13T05:10:05.757Z,81.00
2023-12-13T05:11:08.379Z,81.00
2023-12-13T05:12:10.965Z,81.00
2023-12-13T05:13:13.675Z,81.00
2023-12-13T05:14:16.313Z,80.17
2023-12-13T05:15:18.930Z,79.00
2023-12-13T05:16:21.573Z,77.67
2023-12-13T05:17:24.269Z,75.50
2023-12-13T05:18:26.917Z,75.00
2023-12-13T05:19:29.711Z,75.00
2023-12-13T05:20:32.628Z,75.83
2023-12-13T05:21:35.202Z,76.00
2023-12-13T05:22:37.823Z,76.83
2023-12-13T05:23:40.812Z,78.50
2023-12-13T05:24:44.005Z,80.00
2023-12-13T05:25:46.753Z,80.50
2023-12-13T05:26:49.353Z,82.50
2023-12-13T05:27:52.221Z,83.00
2023-12-13T05:28:54.845Z,83.50
2023-12-13T05:29:57.518Z,83.00
2023-12-13T05:31:00.142Z,83.00
2023-12-13T05:32:02.940Z,83.00
2023-12-13T05:33:07.328Z,82.17
2023-12-13T05:34:10.125Z,82.00
2023-12-13T05:35:12.763Z,82.00
2023-12-13T05:36:15.415Z,82.00
2023-12-13T05:37:18.116Z,82.00
2023-12-13T05:38:20.726Z,81.00
2023-12-13T05:39:23.307Z,80.00
2023-12-13T05:40:25.991Z,80.00
2023-12-13T05:41:28.640Z,80.00
2023-12-13T05:42:31.237Z,79.00
2023-12-13T05:43:36.551Z,79.00
2023-12-13T05:44:39.223Z,78.50
2023-12-13T05:45:41.869Z,78.00
2023-12-13T05:46:44.478Z,78.00
2023-12-13T05:47:47.190Z,78.00
2023-12-13T05:48:50.438Z,78.00
2023-12-13T05:49:53.300Z,78.00
2023-12-13T05:50:55.947Z,78.00
2023-12-13T05:51:58.549Z,78.00
2023-12-13T05:53:01.219Z,78.17
2023-12-13T05:54:03.974Z,79.67
2023-12-13T05:55:07.673Z,81.33
2023-12-13T05:56:12.169Z,82.67
2023-12-13T05:57:14.774Z,84.50
2023-12-13T05:58:17.436Z,85.33
2023-12-13T05:59:20.303Z,88.00
2023-12-13T06:00:22.939Z,88.17
2023-12-13T06:01:25.609Z,87.00
2023-12-13T06:02:28.289Z,85.67
2023-12-13T06:03:31.335Z,84.50
2023-12-13T06:04:34.144Z,82.83
2023-12-13T06:05:37.477Z,82.00
2023-12-13T06:06:47.093Z,82.00
2023-12-13T06:07:50.118Z,83.67
2023-12-13T06:08:52.958Z,89.00
2023-12-13T06:09:55.563Z,93.83
2023-12-13T06:10:59.550Z,93.33
2023-12-13T06:12:04.290Z,92.50
2023-12-13T06:13:06.908Z,92.83
2023-12-13T06:14:09.542Z,92.67
2023-12-13T06:15:12.142Z,92.50
2023-12-13T06:16:15.065Z,92.17
2023-12-13T06:17:17.759Z,92.00
2023-12-13T06:18:20.464Z,92.50
2023-12-13T06:19:23.248Z,93.00
2023-12-13T06:20:25.903Z,93.50
2023-12-13T06:21:28.476Z,95.17
2023-12-13T06:22:31.138Z,96.00
2023-12-13T06:23:33.949Z,96.50
2023-12-13T06:24:36.555Z,98.67
2023-12-13T06:25:39.252Z,100.67
2023-12-13T06:26:42.087Z,102.00
2023-12-13T06:27:44.746Z,103.83
2023-12-13T06:28:47.479Z,105.00
2023-12-13T06:29:50.159Z,105.00
2023-12-13T06:30:52.818Z,105.00
2023-12-13T06:31:55.672Z,104.67
2023-12-13T06:32:58.453Z,102.67
2023-12-13T06:34:01.260Z,102.00
2023-12-13T06:35:04.217Z,100.83
2023-12-13T06:36:08.253Z,99.33
2023-12-13T06:37:10.924Z,99.50
2023-12-13T06:38:13.849Z,99.33
2023-12-13T06:39:17.531Z,101.50
2023-12-13T06:40:20.258Z,103.00
2023-12-13T06:41:24.523Z,104.00
2023-12-13T06:42:27.629Z,110.17
2023-12-13T06:43:31.510Z,110.50
2023-12-13T06:44:34.190Z,111.33
2023-12-13T06:45:37.055Z,113.00
2023-12-13T06:46:40.071Z,112.83
2023-12-13T06:47:43.356Z,113.67
2023-12-13T06:48:49.168Z,114.33
2023-12-13T06:49:58.842Z,114.67
2023-12-13T06:51:01.687Z,116.33
2023-12-13T06:52:06.960Z,116.00
2023-12-13T06:53:33.883Z,116.00
2023-12-13T06:54:43.592Z,117.67
2023-12-13T06:55:50.291Z,121.50
2023-12-13T06:56:53.319Z,125.50
2023-12-13T06:58:00.994Z,128.83
2023-12-13T06:59:03.637Z,140.00
2023-12-13T07:00:14.692Z,145.83
2023-12-13T07:01:17.581Z,142.00
2023-12-13T07:02:43.016Z,137.67
2023-12-13T07:03:48.502Z,136.33
2023-12-13T07:04:55.331Z,135.50
2023-12-13T07:06:06.117Z,132.50
2023-12-13T07:07:20.950Z,128.00
2023-12-13T07:08:24.316Z,125.00
2023-12-13T07:09:27.306Z,124.50
2023-12-13T07:10:30.110Z,123.50
2023-12-13T07:11:34.352Z,120.83
2023-12-13T07:12:37.249Z,118.17
2023-12-13T07:13:39.979Z,117.67
2023-12-13T07:14:44.963Z,115.67
2023-12-13T07:15:48.107Z,110.17
2023-12-13T07:16:50.888Z,111.00
2023-12-13T07:18:23.581Z,113.50
2023-12-13T07:19:26.291Z,141.83
2023-12-13T07:20:29.000Z,142.33
2023-12-13T07:21:31.640Z,143.00
2023-12-13T07:22:34.544Z,149.00
2023-12-13T07:23:37.920Z,145.83
2023-12-13T07:24:40.951Z,142.33
2023-12-13T07:25:43.824Z,138.33
2023-12-13T07:26:46.741Z,136.50
2023-12-13T07:27:49.426Z,135.83
2023-12-13T07:28:52.061Z,133.67
2023-12-13T07:29:54.757Z,129.83
2023-12-13T07:31:06.210Z,126.33
2023-12-13T07:32:12.581Z,124.83
2023-12-13T07:33:15.448Z,125.83
2023-12-13T07:34:20.235Z,128.17
2023-12-13T07:35:23.908Z,128.33
2023-12-13T07:36:26.665Z,128.00
2023-12-13T07:37:29.555Z,127.67
2023-12-13T07:38:32.225Z,126.17
2023-12-13T07:39:36.679Z,125.17
2023-12-13T07:40:39.325Z,125.17
2023-12-13T07:41:41.958Z,125.50
2023-12-13T07:42:44.712Z,138.00
2023-12-13T07:43:47.463Z,154.33
2023-12-13T07:44:50.129Z,145.33
2023-12-13T07:45:53.512Z,143.50
2023-12-13T07:46:56.330Z,142.00
2023-12-13T07:48:09.369Z,139.83
2023-12-13T07:49:33.753Z,132.17
2023-12-13T07:50:38.356Z,128.33
2023-12-13T07:51:53.568Z,128.17
2023-12-13T07:52:58.468Z,132.00
2023-12-13T07:54:03.001Z,137.67
2023-12-13T07:55:09.668Z,139.50
2023-12-13T07:56:21.466Z,139.83
2023-12-13T07:57:37.326Z,136.00
2023-12-13T07:58:42.113Z,124.67
2023-12-13T07:59:44.705Z,121.17
2023-12-13T08:00:47.743Z,117.50
2023-12-13T08:01:50.590Z,115.67
2023-12-13T08:02:53.884Z,117.17
2023-12-13T08:03:57.679Z,119.17
2023-12-13T08:05:00.453Z,126.67
2023-12-13T08:06:05.433Z,171.67
2023-12-13T08:07:09.089Z,158.50
2023-12-13T08:08:11.744Z,161.83
2023-12-13T08:09:14.533Z,159.83
2023-12-13T08:10:17.234Z,154.00
2023-12-13T08:11:19.899Z,150.50
2023-12-13T08:12:22.562Z,145.17
2023-12-13T08:13:25.281Z,140.17
2023-12-13T08:14:32.092Z,140.00
2023-12-13T08:15:34.866Z,140.00
2023-12-13T08:16:37.635Z,137.33
2023-12-13T08:17:40.451Z,134.00
2023-12-13T08:18:43.209Z,127.50
2023-12-13T08:19:45.997Z,127.33
2023-12-13T08:20:48.974Z,128.00
2023-12-13T08:21:53.154Z,129.33
2023-12-13T08:22:56.791Z,136.00
2023-12-13T08:24:00.003Z,159.67
2023-12-13T08:25:04.539Z,154.00
2023-12-13T08:26:07.917Z,149.67
2023-12-13T08:27:11.085Z,141.17
2023-12-13T08:28:13.905Z,141.83
2023-12-13T08:29:17.184Z,136.67
2023-12-13T08:30:20.180Z,123.00
2023-12-13T08:31:27.220Z,121.50
2023-12-13T08:32:31.074Z,119.17
2023-12-13T08:33:33.711Z,113.50
2023-12-13T08:34:36.678Z,116.17
2023-12-13T08:35:39.315Z,119.83
2023-12-13T08:36:42.117Z,123.33
2023-12-13T08:37:45.158Z,124.00
2023-12-13T08:38:47.892Z,124.83
2023-12-13T08:39:50.645Z,127.50
2023-12-13T08:40:53.365Z,133.17
2023-12-13T08:41:58.845Z,166.00
2023-12-13T08:43:04.634Z,175.33
2023-12-13T08:44:07.544Z,165.33
2023-12-13T08:45:11.611Z,158.00
2023-12-13T08:46:14.477Z,153.33
2023-12-13T08:47:17.248Z,152.67
2023-12-13T08:48:21.947Z,166.83
2023-12-13T08:49:24.917Z,178.50
2023-12-13T08:50:32.572Z,165.67
2023-12-13T08:52:05.715Z,138.17
2023-12-13T08:53:10.575Z,121.17
2023-12-13T08:55:43.606Z,128.33
2023-12-13T08:56:47.189Z,121.83
2023-12-13T08:57:49.867Z,118.33
2023-12-13T08:58:54.085Z,117.00
2023-12-13T09:00:05.670Z,116.00
2023-12-13T09:01:13.985Z,107.00
2023-12-13T09:02:17.149Z,105.67
2023-12-13T09:03:21.162Z,104.33
2023-12-13T09:04:23.972Z,103.83
2023-12-13T09:05:26.703Z,102.50
2023-12-13T09:06:29.392Z,101.17
2023-12-13T09:07:33.764Z,100.33
2023-12-13T09:08:36.906Z,102.33
2023-12-13T09:09:39.864Z,102.83
2023-12-13T09:10:43.225Z,103.83
2023-12-13T09:11:47.580Z,104.33
2023-12-13T09:12:51.581Z,105.33
2023-12-13T09:13:54.410Z,106.33
2023-12-13T09:14:57.073Z,109.83
2023-12-13T09:16:02.660Z,113.50
2023-12-13T09:17:05.760Z,114.83
2023-12-13T09:18:08.468Z,115.17
2023-12-13T09:19:11.244Z,115.83
2023-12-13T09:20:16.885Z,115.00
2023-12-13T09:21:19.676Z,115.83
2023-12-13T09:22:22.385Z,117.67
2023-12-13T09:23:26.104Z,118.67
2023-12-13T09:24:28.771Z,120.17
2023-12-13T09:25:31.425Z,124.17
2023-12-13T09:26:34.406Z,125.33
2023-12-13T09:27:37.687Z,128.50
2023-12-13T09:28:40.344Z,128.17
2023-12-13T09:29:44.054Z,128.17
2023-12-13T09:30:46.876Z,128.00
2023-12-13T09:31:49.710Z,125.50
2023-12-13T09:32:52.434Z,123.00
2023-12-13T09:33:56.505Z,121.17
2023-12-13T09:34:59.336Z,116.83
2023-12-13T09:36:02.000Z,114.17
2023-12-13T09:37:04.839Z,114.00
2023-12-13T09:38:08.508Z,114.00
2023-12-13T09:39:18.203Z,114.00
2023-12-13T09:40:24.047Z,114.00
2023-12-13T09:41:34.479Z,113.17
2023-12-13T09:42:41.352Z,112.83
2023-12-13T09:43:46.246Z,110.33
2023-12-13T09:45:03.113Z,105.67
2023-12-13T09:47:04.464Z,100.00
2023-12-13T09:55:24.323Z,129.50
2023-12-13T09:56:28.013Z,159.17
2023-12-13T09:57:34.659Z,178.50
2023-12-13T09:59:24.486Z,180.00
2023-12-13T10:00:27.472Z,150.67
2023-12-13T10:01:30.327Z,149.17
2023-12-13T10:02:33.853Z,172.50
2023-12-13T10:03:36.960Z,191.33
2023-12-13T10:04:40.105Z,172.00
2023-12-13T10:05:46.303Z,163.00
2023-12-13T10:06:49.194Z,158.33
2023-12-13T10:08:01.369Z,166.67
2023-12-13T10:09:04.849Z,204.67
2023-12-13T10:10:08.415Z,193.17
2023-12-13T10:11:12.787Z,172.17
2023-12-13T10:12:17.215Z,140.50
2023-12-13T10:13:20.021Z,132.17
2023-12-13T10:14:24.012Z,130.67
2023-12-13T10:15:33.406Z,136.67
2023-12-13T10:16:40.168Z,144.67
2023-12-13T10:17:43.837Z,160.00
2023-12-13T10:18:48.437Z,165.50
2023-12-13T10:19:51.242Z,175.00
2023-12-13T10:20:53.971Z,195.00
2023-12-13T10:21:56.693Z,184.33
2023-12-13T10:22:59.354Z,164.83
2023-12-13T10:24:02.577Z,134.33
2023-12-13T10:25:06.155Z,133.50
2023-12-13T10:26:10.061Z,134.00
2023-12-13T10:27:13.497Z,131.17
2023-12-13T10:28:16.137Z,129.17
2023-12-13T10:29:22.266Z,127.67
2023-12-13T10:30:26.354Z,128.00
2023-12-13T10:31:29.120Z,123.83
2023-12-13T10:32:33.222Z,122.17
2023-12-13T10:33:37.020Z,124.17
2023-12-13T10:34:45.757Z,127.17
2023-12-13T10:35:56.350Z,129.67
2023-12-13T10:38:59.834Z,128.50
2023-12-13T10:40:17.018Z,139.83
2023-12-13T10:41:37.741Z,149.33
2023-12-13T10:43:01.017Z,148.33
2023-12-13T10:44:10.049Z,160.00
2023-12-13T10:45:19.489Z,198.33
2023-12-13T10:46:29.762Z,208.67
2023-12-13T10:47:41.313Z,201.33
2023-12-13T10:48:44.755Z,211.33
2023-12-13T10:49:49.950Z,211.83
2023-12-13T10:50:53.344Z,209.67
2023-12-13T10:51:57.721Z,191.83
2023-12-13T10:53:02.844Z,171.50
2023-12-13T10:54:05.616Z,162.17
2023-12-13T10:55:10.047Z,165.33
2023-12-13T10:56:13.668Z,162.83
2023-12-13T10:57:17.622Z,151.00
2023-12-13T10:58:22.370Z,153.33
2023-12-13T10:59:32.180Z,160.67
2023-12-13T11:00:35.497Z,196.50
2023-12-13T11:01:44.078Z,199.50
2023-12-13T11:02:53.654Z,151.50
2023-12-13T11:04:08.847Z,130.50
2023-12-13T11:05:12.069Z,131.50
2023-12-13T11:06:16.231Z,143.33
2023-12-13T11:07:22.531Z,148.17
2023-12-13T11:08:25.965Z,151.83
2023-12-13T11:09:30.807Z,149.67
2023-12-13T11:10:33.485Z,126.33
2023-12-13T11:11:36.412Z,121.50
2023-12-13T11:13:00.379Z,128.50
2023-12-13T11:14:03.253Z,128.33
2023-12-13T11:15:14.160Z,133.17
2023-12-13T11:16:21.115Z,135.17
2023-12-13T11:17:25.189Z,130.50
2023-12-13T11:18:32.233Z,124.33
2023-12-13T11:19:37.703Z,128.33
2023-12-13T11:20:48.908Z,132.83
2023-12-13T11:21:54.952Z,139.17
2023-12-13T11:22:58.663Z,141.00
2023-12-13T11:24:14.607Z,141.00
2023-12-13T11:25:18.371Z,141.33
2023-12-13T11:26:25.192Z,151.00
2023-12-13T11:27:31.916Z,163.33
2023-12-13T11:28:39.325Z,170.83
2023-12-13T11:29:49.598Z,173.83
2023-12-13T11:30:58.545Z,170.00
2023-12-13T11:32:07.588Z,163.33
2023-12-13T11:33:25.643Z,138.83
2023-12-13T11:35:11.389Z,126.83
2023-12-13T11:36:19.430Z,130.67
2023-12-13T11:37:23.511Z,133.83
2023-12-13T11:38:27.486Z,134.67
2023-12-13T11:39:33.518Z,136.17
2023-12-13T11:40:39.055Z,138.83
2023-12-13T11:41:47.202Z,136.50
2023-12-13T11:43:16.895Z,136.50
2023-12-13T11:44:22.978Z,151.17
2023-12-13T11:45:25.764Z,164.67
2023-12-13T11:49:29.884Z,162.00
2023-12-13T11:51:04.802Z,166.83
2023-12-13T11:53:15.817Z,170.33
2023-12-13T11:54:20.515Z,145.00
2023-12-13T11:55:25.747Z,142.00
2023-12-13T11:56:29.059Z,143.67
2023-12-13T11:57:32.498Z,157.50
2023-12-13T11:58:36.962Z,171.50
2023-12-13T11:59:43.867Z,181.50
2023-12-13T12:00:49.677Z,175.33
2023-12-13T12:01:54.711Z,171.83
2023-12-13T12:03:03.253Z,167.17
2023-12-13T12:04:06.959Z,159.67
2023-12-13T12:05:09.881Z,153.83
2023-12-13T12:06:20.458Z,152.67
2023-12-13T12:08:25.094Z,149.17
2023-12-13T12:09:31.255Z,149.00
2023-12-13T12:11:14.258Z,150.00
2023-12-13T12:12:18.408Z,148.67
2023-12-13T12:13:22.684Z,155.17
2023-12-13T12:14:29.655Z,159.50
2023-12-13T12:15:33.680Z,162.50
2023-12-13T12:16:42.218Z,163.83
2023-12-13T12:17:45.214Z,170.50
2023-12-13T12:18:48.223Z,168.83
2023-12-13T12:19:53.128Z,145.17
2023-12-13T12:20:57.849Z,124.50
2023-12-13T12:22:04.508Z,122.83
2023-12-13T12:23:08.103Z,133.67
2023-12-13T12:24:12.137Z,137.50
2023-12-13T12:25:15.892Z,142.00
2023-12-13T12:26:22.654Z,142.00
2023-12-13T12:28:24.840Z,144.17
2023-12-13T12:29:30.155Z,156.00
2023-12-13T12:30:44.841Z,155.00
2023-12-13T12:31:49.120Z,168.50
2023-12-13T12:33:00.771Z,181.83
2023-12-13T12:36:36.369Z,188.33
2023-12-13T12:42:42.668Z,188.33
2023-12-13T12:45:15.962Z,169.33
2023-12-13T12:48:43.020Z,164.00
2023-12-13T13:01:16.197Z,194.00
2023-12-13T13:02:25.974Z,207.17
2023-12-13T13:03:31.594Z,217.50
2023-12-13T13:05:26.929Z,228.50
2023-12-13T13:06:31.485Z,231.17
2023-12-13T13:08:20.232Z,219.17
2023-12-13T13:09:23.406Z,205.17
2023-12-13T13:10:26.363Z,163.67
2023-12-13T13:11:28.964Z,159.50
2023-12-13T13:12:32.636Z,172.00
2023-12-13T13:13:36.136Z,178.33
2023-12-13T13:14:41.321Z,179.50
2023-12-13T13:15:50.658Z,180.33
2023-12-13T13:19:37.993Z,187.00
2023-12-13T13:25:42.811Z,167.50
2023-12-13T13:30:24.446Z,172.00
2023-12-13T13:31:32.918Z,171.17
2023-12-13T13:36:07.976Z,170.00
2023-12-13T13:37:15.384Z,175.17
2023-12-13T13:38:20.685Z,173.83
2023-12-13T13:40:49.903Z,172.33
2023-12-13T13:43:09.498Z,203.33
2023-12-13T13:44:12.350Z,208.17
2023-12-13T13:45:15.232Z,214.33
2023-12-13T13:46:18.389Z,220.33
2023-12-13T13:47:21.245Z,243.33
2023-12-13T13:48:24.118Z,246.50
2023-12-13T13:49:27.029Z,245.83
2023-12-13T13:50:29.776Z,238.83
2023-12-13T13:51:32.771Z,237.33
2023-12-13T13:52:36.003Z,240.67
2023-12-13T13:53:43.185Z,244.83
2023-12-13T13:54:45.887Z,244.00
2023-12-13T13:55:48.753Z,234.83
2023-12-13T13:56:51.456Z,215.67
2023-12-13T13:57:54.214Z,209.33
2023-12-13T13:58:57.115Z,211.83
2023-12-13T13:59:59.951Z,217.67
2023-12-13T14:01:02.821Z,222.33
2023-12-13T14:02:06.128Z,223.00
2023-12-13T14:03:09.080Z,223.00
2023-12-13T14:04:11.866Z,222.33
2023-12-13T14:05:14.706Z,222.00
2023-12-13T14:06:17.986Z,223.33
2023-12-13T14:07:21.410Z,222.83
2023-12-13T14:08:24.603Z,216.33
2023-12-13T14:09:27.398Z,215.33
2023-12-13T14:10:31.215Z,225.17
2023-12-13T14:11:36.098Z,257.00
2023-12-13T14:12:38.685Z,249.33
2023-12-13T14:13:41.322Z,249.33
2023-12-13T14:14:43.972Z,287.67
2023-12-13T14:15:49.482Z,283.50
2023-12-13T14:16:52.246Z,274.33
2023-12-13T14:17:55.805Z,312.67
2023-12-13T14:18:58.675Z,296.17
2023-12-13T14:20:02.160Z,277.83
2023-12-13T14:21:05.378Z,273.33
2023-12-13T14:22:09.134Z,271.83
2023-12-13T14:23:12.817Z,276.00
2023-12-13T14:24:20.420Z,275.50
2023-12-13T14:25:23.497Z,281.33
2023-12-13T14:26:26.434Z,284.33
2023-12-13T14:27:29.330Z,310.83
2023-12-13T14:28:31.993Z,319.33
2023-12-13T14:29:34.667Z,296.83
2023-12-13T14:30:37.333Z,308.00
2023-12-13T14:31:40.030Z,313.67
2023-12-13T14:32:44.359Z,311.50
2023-12-13T14:33:48.126Z,316.33
2023-12-13T14:34:50.946Z,313.17
2023-12-13T14:35:54.729Z,326.00